VERT2: Pease River Nr Vernon, TX

Data processed at Tue May 21 2019 23:50


All information presented herein is the property of the government of the United States of America and may be revised or deleted at any time without prior notice.
Dissemination of this information without the expressed written consent of the Public Affairs Office, Tulsa District U.S. Army Corps of Engineers is strictly prohibited.
These data are gathered electronically and, as presented, have not undergone any form of quality control. These data are not guaranteed to be valid or correct.
Go to home page.
Go to station list.
Go to home page.

Downstream station:


Previous Day
Next Day
Current Day
    
SHEF ID:       VERT2     Pease River nr Vernon, TX
STATION TYPE:  
Regulating: Stage =    15.00, Flow =    12297

               PRECIP     STAGE  RIV-FLOW  BAT-LOAD
                   in        ft       cfs      volt
              Ccp-Rev   Ccp-Rev   Ccp-Rev   Ccp-Rev
(US/Central)
05/21 00:00      0.06      5.85        90     12.42
05/21 01:00      0.37      6.02       113     12.36
05/21 02:00      0.58      6.20       143     12.36
05/21 03:00      0.08      6.44       189     12.36
05/21 04:00      0.17      6.73       257     12.36
05/21 05:00      0.00      6.96       321     12.36
05/21 06:00      0.00      7.22       405     12.36
05/21 07:00      0.00      7.48       502     12.36
05/21 08:00      0.00      7.84       653     12.36
05/21 09:00      0.00      8.21       837     12.36
05/21 10:00      0.00      8.46       988     12.42
05/21 11:00      0.00      8.72      1170     12.54
05/21 12:00      0.00      8.76      1200     12.60
05/21 13:00      0.00      8.85      1270     12.65
05/21 14:00      0.00      8.88      1293     12.65
05/21 15:00      0.00      8.89      1301     12.65
05/21 16:00      0.00      8.93      1333     12.65
05/21 17:00      0.00      8.82      1246     12.65
05/21 18:00      0.00      8.79      1223     12.65
05/21 19:00      0.00      8.68      1141     12.65
05/21 20:00      0.00      8.54      1042     12.60
05/21 21:00      0.00      8.42       962     12.54
05/21 22:00      0.00      8.40       949     12.54
05/21 23:00      0.00      8.23       847     12.48